sensor_id;sensor_type;location;lat;lon;timestamp;temperature;humidity
2030;DHT22;1020;48.854;8.830;2023-08-24T00:01:13;19.60;1.00
2030;DHT22;1020;48.854;8.830;2023-08-24T00:03:43;19.70;99.90
2030;DHT22;1020;48.854;8.830;2023-08-24T00:06:09;19.50;1.00
2030;DHT22;1020;48.854;8.830;2023-08-24T00:08:37;19.50;1.00
2030;DHT22;1020;48.854;8.830;2023-08-24T00:11:03;19.40;1.00
2030;DHT22;1020;48.854;8.830;2023-08-24T00:13:31;19.30;1.00
2030;DHT22;1020;48.854;8.830;2023-08-24T00:15:59;19.30;1.00
2030;DHT22;1020;48.854;8.830;2023-08-24T00:18:26;19.30;1.00
2030;DHT22;1020;48.854;8.830;2023-08-24T00:20:52;19.30;1.00
2030;DHT22;1020;48.854;8.830;2023-08-24T00:23:19;19.40;1.00
2030;DHT22;1020;48.854;8.830;2023-08-24T00:25:46;19.40;1.00
2030;DHT22;1020;48.854;8.830;2023-08-24T00:28:13;19.40;1.00
2030;DHT22;1020;48.854;8.830;2023-08-24T00:30:40;19.40;1.00
2030;DHT22;1020;48.854;8.830;2023-08-24T00:33:08;19.30;1.00
2030;DHT22;1020;48.854;8.830;2023-08-24T00:35:34;19.20;1.00
2030;DHT22;1020;48.854;8.830;2023-08-24T00:38:01;19.20;1.00
2030;DHT22;1020;48.854;8.830;2023-08-24T00:40:28;19.20;1.00
2030;DHT22;1020;48.854;8.830;2023-08-24T00:42:55;19.20;1.00
2030;DHT22;1020;48.854;8.830;2023-08-24T00:45:21;19.10;1.00
2030;DHT22;1020;48.854;8.830;2023-08-24T00:47:48;19.20;1.00
2030;DHT22;1020;48.854;8.830;2023-08-24T00:50:17;19.30;1.00
2030;DHT22;1020;48.854;8.830;2023-08-24T00:52:44;19.30;1.00
2030;DHT22;1020;48.854;8.830;2023-08-24T00:55:13;19.30;1.00
2030;DHT22;1020;48.854;8.830;2023-08-24T00:57:40;19.30;1.00
2030;DHT22;1020;48.854;8.830;2023-08-24T01:00:08;19.30;1.00
2030;DHT22;1020;48.854;8.830;2023-08-24T01:02:36;19.30;1.00
2030;DHT22;1020;48.854;8.830;2023-08-24T01:05:04;19.30;1.00
2030;DHT22;1020;48.854;8.830;2023-08-24T01:07:34;19.20;1.00
2030;DHT22;1020;48.854;8.830;2023-08-24T01:10:03;19.10;1.00
2030;DHT22;1020;48.854;8.830;2023-08-24T01:12:39;19.10;1.00
2030;DHT22;1020;48.854;8.830;2023-08-24T01:15:13;19.00;1.00
2030;DHT22;1020;48.854;8.830;2023-08-24T01:17:43;19.10;1.00
2030;DHT22;1020;48.854;8.830;2023-08-24T01:20:10;19.20;1.00
2030;DHT22;1020;48.854;8.830;2023-08-24T01:22:46;19.20;1.00
2030;DHT22;1020;48.854;8.830;2023-08-24T01:25:16;19.10;1.00
2030;DHT22;1020;48.854;8.830;2023-08-24T01:27:47;19.00;1.00
2030;DHT22;1020;48.854;8.830;2023-08-24T01:30:14;18.90;1.00
2030;DHT22;1020;48.854;8.830;2023-08-24T01:32:41;18.90;1.00
2030;DHT22;1020;48.854;8.830;2023-08-24T01:35:09;18.90;1.00
2030;DHT22;1020;48.854;8.830;2023-08-24T01:37:36;18.90;1.00
2030;DHT22;1020;48.854;8.830;2023-08-24T01:40:05;18.90;1.00
2030;DHT22;1020;48.854;8.830;2023-08-24T01:42:41;19.00;1.00
2030;DHT22;1020;48.854;8.830;2023-08-24T01:45:11;19.00;1.00
2030;DHT22;1020;48.854;8.830;2023-08-24T01:47:41;19.30;1.00
2030;DHT22;1020;48.854;8.830;2023-08-24T01:50:09;19.00;1.00
2030;DHT22;1020;48.854;8.830;2023-08-24T01:52:37;18.90;1.00
2030;DHT22;1020;48.854;8.830;2023-08-24T01:55:04;18.90;1.00
2030;DHT22;1020;48.854;8.830;2023-08-24T01:57:31;18.90;1.00
2030;DHT22;1020;48.854;8.830;2023-08-24T01:59:58;18.80;1.00
2030;DHT22;1020;48.854;8.830;2023-08-24T02:02:26;18.70;1.00
2030;DHT22;1020;48.854;8.830;2023-08-24T02:04:52;18.70;1.00
2030;DHT22;1020;48.854;8.830;2023-08-24T02:07:19;18.60;1.00
2030;DHT22;1020;48.854;8.830;2023-08-24T02:09:46;18.70;1.00
2030;DHT22;1020;48.854;8.830;2023-08-24T02:12:12;18.70;1.00
2030;DHT22;1020;48.854;8.830;2023-08-24T02:14:39;18.70;1.00
2030;DHT22;1020;48.854;8.830;2023-08-24T02:17:06;18.70;1.00
2030;DHT22;1020;48.854;8.830;2023-08-24T02:19:34;18.60;1.00
2030;DHT22;1020;48.854;8.830;2023-08-24T02:22:01;18.70;1.00
2030;DHT22;1020;48.854;8.830;2023-08-24T02:24:28;18.70;1.00
2030;DHT22;1020;48.854;8.830;2023-08-24T02:26:54;18.60;1.00
2030;DHT22;1020;48.854;8.830;2023-08-24T02:29:21;18.60;1.00
2030;DHT22;1020;48.854;8.830;2023-08-24T02:31:49;18.50;1.00
2030;DHT22;1020;48.854;8.830;2023-08-24T02:34:16;18.50;1.00
2030;DHT22;1020;48.854;8.830;2023-08-24T02:36:44;18.50;1.00
2030;DHT22;1020;48.854;8.830;2023-08-24T02:39:11;18.50;1.00
2030;DHT22;1020;48.854;8.830;2023-08-24T02:41:38;18.60;1.00
2030;DHT22;1020;48.854;8.830;2023-08-24T02:44:04;18.50;1.00
2030;DHT22;1020;48.854;8.830;2023-08-24T02:46:31;18.50;1.00
2030;DHT22;1020;48.854;8.830;2023-08-24T02:48:58;18.50;1.00
2030;DHT22;1020;48.854;8.830;2023-08-24T02:51:25;18.50;1.00
2030;DHT22;1020;48.854;8.830;2023-08-24T02:53:53;16.90;1.00
2030;DHT22;1020;48.854;8.830;2023-08-24T02:56:20;19.20;1.00
2030;DHT22;1020;48.854;8.830;2023-08-24T02:58:46;18.60;1.00
2030;DHT22;1020;48.854;8.830;2023-08-24T03:01:13;18.60;1.00
2030;DHT22;1020;48.854;8.830;2023-08-24T03:03:40;18.60;1.00
2030;DHT22;1020;48.854;8.830;2023-08-24T03:06:08;18.60;1.00
2030;DHT22;1020;48.854;8.830;2023-08-24T03:08:35;18.60;1.00
2030;DHT22;1020;48.854;8.830;2023-08-24T03:11:03;18.70;1.00
2030;DHT22;1020;48.854;8.830;2023-08-24T03:13:30;18.70;1.00
2030;DHT22;1020;48.854;8.830;2023-08-24T03:15:59;18.60;1.00
2030;DHT22;1020;48.854;8.830;2023-08-24T03:18:29;18.70;1.00
2030;DHT22;1020;48.854;8.830;2023-08-24T03:20:55;18.70;1.00
2030;DHT22;1020;48.854;8.830;2023-08-24T03:23:22;18.70;1.00
2030;DHT22;1020;48.854;8.830;2023-08-24T03:25:49;18.70;1.00
2030;DHT22;1020;48.854;8.830;2023-08-24T03:28:17;18.60;1.00
2030;DHT22;1020;48.854;8.830;2023-08-24T03:30:51;18.60;1.00
2030;DHT22;1020;48.854;8.830;2023-08-24T03:33:19;18.60;1.00
2030;DHT22;1020;48.854;8.830;2023-08-24T03:35:46;18.60;1.00
2030;DHT22;1020;48.854;8.830;2023-08-24T03:38:13;18.60;1.00
2030;DHT22;1020;48.854;8.830;2023-08-24T03:40:40;18.50;1.00
2030;DHT22;1020;48.854;8.830;2023-08-24T03:43:07;18.60;1.00
2030;DHT22;1020;48.854;8.830;2023-08-24T03:45:35;18.60;1.00
2030;DHT22;1020;48.854;8.830;2023-08-24T03:48:02;18.60;1.00
2030;DHT22;1020;48.854;8.830;2023-08-24T03:50:28;18.60;1.00
2030;DHT22;1020;48.854;8.830;2023-08-24T03:52:55;18.60;1.00
2030;DHT22;1020;48.854;8.830;2023-08-24T03:55:22;18.70;1.00
2030;DHT22;1020;48.854;8.830;2023-08-24T03:57:49;18.70;1.00
2030;DHT22;1020;48.854;8.830;2023-08-24T04:00:16;18.80;1.00
2030;DHT22;1020;48.854;8.830;2023-08-24T04:02:44;18.80;1.00
2030;DHT22;1020;48.854;8.830;2023-08-24T04:05:11;18.90;1.00
2030;DHT22;1020;48.854;8.830;2023-08-24T04:07:38;18.80;1.00
2030;DHT22;1020;48.854;8.830;2023-08-24T04:10:07;18.70;1.00
2030;DHT22;1020;48.854;8.830;2023-08-24T04:12:34;18.80;1.00
2030;DHT22;1020;48.854;8.830;2023-08-24T04:15:01;18.80;1.00
2030;DHT22;1020;48.854;8.830;2023-08-24T04:17:28;18.80;1.00
2030;DHT22;1020;48.854;8.830;2023-08-24T04:19:56;18.80;1.00
2030;DHT22;1020;48.854;8.830;2023-08-24T04:22:23;18.80;1.00
2030;DHT22;1020;48.854;8.830;2023-08-24T04:24:50;18.90;1.00
2030;DHT22;1020;48.854;8.830;2023-08-24T04:27:16;19.00;1.00
2030;DHT22;1020;48.854;8.830;2023-08-24T04:29:43;19.00;1.00
2030;DHT22;1020;48.854;8.830;2023-08-24T04:32:10;18.90;1.00
2030;DHT22;1020;48.854;8.830;2023-08-24T04:34:37;18.70;1.00
2030;DHT22;1020;48.854;8.830;2023-08-24T04:37:05;18.70;1.00
2030;DHT22;1020;48.854;8.830;2023-08-24T04:39:32;18.60;1.00
2030;DHT22;1020;48.854;8.830;2023-08-24T04:41:59;18.70;1.00
2030;DHT22;1020;48.854;8.830;2023-08-24T04:44:26;18.60;1.00
2030;DHT22;1020;48.854;8.830;2023-08-24T04:46:53;18.50;1.00
2030;DHT22;1020;48.854;8.830;2023-08-24T04:49:19;18.40;1.00
2030;DHT22;1020;48.854;8.830;2023-08-24T04:51:46;18.40;1.00
2030;DHT22;1020;48.854;8.830;2023-08-24T04:54:14;18.40;1.00
2030;DHT22;1020;48.854;8.830;2023-08-24T04:56:41;18.30;1.00
2030;DHT22;1020;48.854;8.830;2023-08-24T04:59:08;18.30;1.00
2030;DHT22;1020;48.854;8.830;2023-08-24T05:01:36;18.40;1.00
2030;DHT22;1020;48.854;8.830;2023-08-24T05:04:02;18.50;1.00
2030;DHT22;1020;48.854;8.830;2023-08-24T05:06:29;18.60;1.00
2030;DHT22;1020;48.854;8.830;2023-08-24T05:08:56;18.70;1.00
2030;DHT22;1020;48.854;8.830;2023-08-24T05:11:26;18.80;1.00
2030;DHT22;1020;48.854;8.830;2023-08-24T05:13:54;18.90;1.00
2030;DHT22;1020;48.854;8.830;2023-08-24T05:16:21;18.90;1.00
2030;DHT22;1020;48.854;8.830;2023-08-24T05:18:48;18.90;1.00
2030;DHT22;1020;48.854;8.830;2023-08-24T05:21:15;18.90;1.00
2030;DHT22;1020;48.854;8.830;2023-08-24T05:23:41;19.00;1.00
2030;DHT22;1020;48.854;8.830;2023-08-24T05:26:08;19.00;1.00
2030;DHT22;1020;48.854;8.830;2023-08-24T05:28:36;19.00;1.00
2030;DHT22;1020;48.854;8.830;2023-08-24T05:31:03;19.00;1.00
2030;DHT22;1020;48.854;8.830;2023-08-24T05:33:30;19.00;1.00
2030;DHT22;1020;48.854;8.830;2023-08-24T05:35:58;19.10;1.00
2030;DHT22;1020;48.854;8.830;2023-08-24T05:38:25;19.20;1.00
2030;DHT22;1020;48.854;8.830;2023-08-24T05:40:52;19.20;1.00
2030;DHT22;1020;48.854;8.830;2023-08-24T05:43:18;19.30;1.00
2030;DHT22;1020;48.854;8.830;2023-08-24T05:45:48;19.60;99.90
2030;DHT22;1020;48.854;8.830;2023-08-24T05:48:15;19.70;99.90
2030;DHT22;1020;48.854;8.830;2023-08-24T05:50:45;19.90;99.90
2030;DHT22;1020;48.854;8.830;2023-08-24T05:53:12;20.10;99.90
2030;DHT22;1020;48.854;8.830;2023-08-24T05:55:39;20.00;1.80
2030;DHT22;1020;48.854;8.830;2023-08-24T05:58:06;20.10;1.00
2030;DHT22;1020;48.854;8.830;2023-08-24T06:00:32;17.80;1.00
2030;DHT22;1020;48.854;8.830;2023-08-24T06:03:01;20.30;1.00
2030;DHT22;1020;48.854;8.830;2023-08-24T06:05:29;20.30;99.90
2030;DHT22;1020;48.854;8.830;2023-08-24T06:07:56;20.60;99.90
2030;DHT22;1020;48.854;8.830;2023-08-24T06:10:23;20.50;1.00
2030;DHT22;1020;48.854;8.830;2023-08-24T06:12:51;20.60;1.00
2030;DHT22;1020;48.854;8.830;2023-08-24T06:15:18;20.80;1.00
2030;DHT22;1020;48.854;8.830;2023-08-24T06:17:49;20.80;1.00
2030;DHT22;1020;48.854;8.830;2023-08-24T06:20:17;20.90;99.90
2030;DHT22;1020;48.854;8.830;2023-08-24T06:22:44;20.90;99.90
2030;DHT22;1020;48.854;8.830;2023-08-24T06:25:11;20.90;1.00
2030;DHT22;1020;48.854;8.830;2023-08-24T06:27:38;20.90;13.80
2030;DHT22;1020;48.854;8.830;2023-08-24T06:30:06;21.00;72.60
2030;DHT22;1020;48.854;8.830;2023-08-24T06:32:33;21.10;1.00
2030;DHT22;1020;48.854;8.830;2023-08-24T06:34:59;21.30;1.00
2030;DHT22;1020;48.854;8.830;2023-08-24T06:37:27;21.40;1.00
2030;DHT22;1020;48.854;8.830;2023-08-24T06:39:54;21.30;99.90
2030;DHT22;1020;48.854;8.830;2023-08-24T06:42:21;21.30;99.90
2030;DHT22;1020;48.854;8.830;2023-08-24T06:44:47;21.40;99.90
2030;DHT22;1020;48.854;8.830;2023-08-24T06:47:16;21.70;99.90
2030;DHT22;1020;48.854;8.830;2023-08-24T06:49:43;21.90;99.90
2030;DHT22;1020;48.854;8.830;2023-08-24T06:52:09;22.10;1.00
2030;DHT22;1020;48.854;8.830;2023-08-24T06:54:37;22.10;99.90
2030;DHT22;1020;48.854;8.830;2023-08-24T06:57:04;22.00;1.00
2030;DHT22;1020;48.854;8.830;2023-08-24T06:59:31;21.70;99.90
2030;DHT22;1020;48.854;8.830;2023-08-24T07:01:58;21.50;1.00
2030;DHT22;1020;48.854;8.830;2023-08-24T07:04:25;21.40;99.90
2030;DHT22;1020;48.854;8.830;2023-08-24T07:06:52;21.50;99.90
2030;DHT22;1020;48.854;8.830;2023-08-24T07:09:19;21.80;1.00
2030;DHT22;1020;48.854;8.830;2023-08-24T07:11:47;22.10;99.90
2030;DHT22;1020;48.854;8.830;2023-08-24T07:14:14;22.20;1.00
2030;DHT22;1020;48.854;8.830;2023-08-24T07:16:41;22.20;99.90
2030;DHT22;1020;48.854;8.830;2023-08-24T07:19:08;22.30;99.90
2030;DHT22;1020;48.854;8.830;2023-08-24T07:21:35;23.40;99.90
2030;DHT22;1020;48.854;8.830;2023-08-24T07:24:02;24.50;99.90
2030;DHT22;1020;48.854;8.830;2023-08-24T07:26:29;23.30;99.90
2030;DHT22;1020;48.854;8.830;2023-08-24T07:28:58;26.50;62.80
2030;DHT22;1020;48.854;8.830;2023-08-24T07:31:25;27.30;1.00
2030;DHT22;1020;48.854;8.830;2023-08-24T07:33:52;28.60;1.00
2030;DHT22;1020;48.854;8.830;2023-08-24T07:36:18;29.00;1.00
2030;DHT22;1020;48.854;8.830;2023-08-24T07:38:45;29.40;99.90
2030;DHT22;1020;48.854;8.830;2023-08-24T07:41:13;29.50;99.90
2030;DHT22;1020;48.854;8.830;2023-08-24T07:43:39;30.80;99.90
2030;DHT22;1020;48.854;8.830;2023-08-24T07:46:07;32.00;99.90
2030;DHT22;1020;48.854;8.830;2023-08-24T07:48:34;32.70;99.90
2030;DHT22;1020;48.854;8.830;2023-08-24T07:51:01;32.80;99.90
2030;DHT22;1020;48.854;8.830;2023-08-24T07:53:28;33.00;99.90
2030;DHT22;1020;48.854;8.830;2023-08-24T07:55:55;33.60;99.90
2030;DHT22;1020;48.854;8.830;2023-08-24T07:58:22;34.00;99.90
2030;DHT22;1020;48.854;8.830;2023-08-24T08:00:49;34.90;99.90
2030;DHT22;1020;48.854;8.830;2023-08-24T08:03:18;35.00;99.90
2030;DHT22;1020;48.854;8.830;2023-08-24T08:05:45;35.30;99.90
2030;DHT22;1020;48.854;8.830;2023-08-24T08:08:12;35.20;99.90
2030;DHT22;1020;48.854;8.830;2023-08-24T08:10:39;35.00;99.90
2030;DHT22;1020;48.854;8.830;2023-08-24T08:13:06;35.40;99.90
2030;DHT22;1020;48.854;8.830;2023-08-24T08:15:34;34.10;99.90
2030;DHT22;1020;48.854;8.830;2023-08-24T08:18:01;33.60;99.90
2030;DHT22;1020;48.854;8.830;2023-08-24T08:20:29;33.30;99.90
2030;DHT22;1020;48.854;8.830;2023-08-24T08:22:56;34.70;99.90
2030;DHT22;1020;48.854;8.830;2023-08-24T08:25:23;35.60;99.90
2030;DHT22;1020;48.854;8.830;2023-08-24T08:27:50;35.00;99.90
2030;DHT22;1020;48.854;8.830;2023-08-24T08:30:16;35.20;99.90
2030;DHT22;1020;48.854;8.830;2023-08-24T08:32:45;35.60;99.90
2030;DHT22;1020;48.854;8.830;2023-08-24T08:35:12;35.90;99.90
2030;DHT22;1020;48.854;8.830;2023-08-24T08:37:40;36.20;99.90
2030;DHT22;1020;48.854;8.830;2023-08-24T08:40:10;37.00;99.90
2030;DHT22;1020;48.854;8.830;2023-08-24T08:42:37;37.40;99.90
2030;DHT22;1020;48.854;8.830;2023-08-24T08:45:08;37.50;99.90
2030;DHT22;1020;48.854;8.830;2023-08-24T08:47:35;38.20;99.90
2030;DHT22;1020;48.854;8.830;2023-08-24T08:50:03;38.80;99.90
2030;DHT22;1020;48.854;8.830;2023-08-24T08:52:31;38.60;99.90
2030;DHT22;1020;48.854;8.830;2023-08-24T08:55:00;38.80;99.90
2030;DHT22;1020;48.854;8.830;2023-08-24T08:57:27;38.20;99.90
2030;DHT22;1020;48.854;8.830;2023-08-24T08:59:53;38.20;99.90
2030;DHT22;1020;48.854;8.830;2023-08-24T09:02:21;37.70;99.90
2030;DHT22;1020;48.854;8.830;2023-08-24T09:04:51;37.40;99.90
2030;DHT22;1020;48.854;8.830;2023-08-24T09:07:17;36.20;99.90
2030;DHT22;1020;48.854;8.830;2023-08-24T09:09:46;35.90;99.90
2030;DHT22;1020;48.854;8.830;2023-08-24T09:12:14;36.80;99.90
2030;DHT22;1020;48.854;8.830;2023-08-24T09:14:40;36.70;99.90
2030;DHT22;1020;48.854;8.830;2023-08-24T09:17:08;36.40;99.90
2030;DHT22;1020;48.854;8.830;2023-08-24T09:19:34;35.90;99.90
2030;DHT22;1020;48.854;8.830;2023-08-24T09:22:04;36.80;99.90
2030;DHT22;1020;48.854;8.830;2023-08-24T09:24:31;36.90;99.90
2030;DHT22;1020;48.854;8.830;2023-08-24T09:26:58;37.10;99.90
2030;DHT22;1020;48.854;8.830;2023-08-24T09:29:27;37.30;99.90
2030;DHT22;1020;48.854;8.830;2023-08-24T09:31:54;37.80;99.90
2030;DHT22;1020;48.854;8.830;2023-08-24T09:34:22;37.90;99.90
2030;DHT22;1020;48.854;8.830;2023-08-24T09:36:52;38.30;99.90
2030;DHT22;1020;48.854;8.830;2023-08-24T09:39:18;38.20;99.90
2030;DHT22;1020;48.854;8.830;2023-08-24T09:41:48;37.60;99.90
2030;DHT22;1020;48.854;8.830;2023-08-24T09:44:17;37.50;99.90
2030;DHT22;1020;48.854;8.830;2023-08-24T09:46:45;37.20;99.90
2030;DHT22;1020;48.854;8.830;2023-08-24T09:49:12;37.30;99.90
2030;DHT22;1020;48.854;8.830;2023-08-24T09:51:40;37.10;99.90
2030;DHT22;1020;48.854;8.830;2023-08-24T09:54:08;37.10;99.90
2030;DHT22;1020;48.854;8.830;2023-08-24T09:56:36;37.10;99.90
2030;DHT22;1020;48.854;8.830;2023-08-24T09:59:10;35.50;99.90
2030;DHT22;1020;48.854;8.830;2023-08-24T10:01:40;34.20;99.90
2030;DHT22;1020;48.854;8.830;2023-08-24T10:04:10;34.20;99.90
2030;DHT22;1020;48.854;8.830;2023-08-24T10:06:38;34.00;99.90
2030;DHT22;1020;48.854;8.830;2023-08-24T10:09:07;33.90;99.90
2030;DHT22;1020;48.854;8.830;2023-08-24T10:11:37;34.70;99.90
2030;DHT22;1020;48.854;8.830;2023-08-24T10:14:10;35.00;99.90
2030;DHT22;1020;48.854;8.830;2023-08-24T10:16:37;35.40;99.90
2030;DHT22;1020;48.854;8.830;2023-08-24T10:19:05;35.20;99.90
2030;DHT22;1020;48.854;8.830;2023-08-24T10:21:34;35.20;99.90
2030;DHT22;1020;48.854;8.830;2023-08-24T10:24:03;35.20;99.90
2030;DHT22;1020;48.854;8.830;2023-08-24T10:26:30;35.70;99.90
2030;DHT22;1020;48.854;8.830;2023-08-24T10:28:59;35.90;99.90
2030;DHT22;1020;48.854;8.830;2023-08-24T10:31:26;36.50;99.90
2030;DHT22;1020;48.854;8.830;2023-08-24T10:33:55;36.90;99.90
2030;DHT22;1020;48.854;8.830;2023-08-24T10:36:23;36.80;99.90
2030;DHT22;1020;48.854;8.830;2023-08-24T10:38:55;37.10;99.90
2030;DHT22;1020;48.854;8.830;2023-08-24T10:41:26;36.80;99.90
2030;DHT22;1020;48.854;8.830;2023-08-24T10:44:04;36.90;99.90
2030;DHT22;1020;48.854;8.830;2023-08-24T10:46:34;35.40;99.90
2030;DHT22;1020;48.854;8.830;2023-08-24T10:49:04;35.10;99.90
2030;DHT22;1020;48.854;8.830;2023-08-24T10:51:31;35.10;99.90
2030;DHT22;1020;48.854;8.830;2023-08-24T10:53:59;35.70;99.90
2030;DHT22;1020;48.854;8.830;2023-08-24T10:56:36;35.60;99.90
2030;DHT22;1020;48.854;8.830;2023-08-24T10:59:11;35.70;99.90
2030;DHT22;1020;48.854;8.830;2023-08-24T11:01:39;34.90;99.90
2030;DHT22;1020;48.854;8.830;2023-08-24T11:04:06;35.40;99.90
2030;DHT22;1020;48.854;8.830;2023-08-24T11:06:34;37.70;99.90
2030;DHT22;1020;48.854;8.830;2023-08-24T11:09:09;36.60;99.90
2030;DHT22;1020;48.854;8.830;2023-08-24T11:11:39;36.40;99.90
2030;DHT22;1020;48.854;8.830;2023-08-24T11:14:13;36.20;99.90
2030;DHT22;1020;48.854;8.830;2023-08-24T11:16:42;35.70;99.90
2030;DHT22;1020;48.854;8.830;2023-08-24T11:19:10;35.40;99.90
2030;DHT22;1020;48.854;8.830;2023-08-24T11:21:38;35.80;99.90
2030;DHT22;1020;48.854;8.830;2023-08-24T11:24:05;36.20;99.90
2030;DHT22;1020;48.854;8.830;2023-08-24T11:26:34;35.90;99.90
2030;DHT22;1020;48.854;8.830;2023-08-24T11:29:04;36.50;99.90
2030;DHT22;1020;48.854;8.830;2023-08-24T11:31:33;37.50;99.90
2030;DHT22;1020;48.854;8.830;2023-08-24T11:34:00;37.50;99.90
2030;DHT22;1020;48.854;8.830;2023-08-24T11:36:26;37.60;99.90
2030;DHT22;1020;48.854;8.830;2023-08-24T11:38:57;36.90;99.90
2030;DHT22;1020;48.854;8.830;2023-08-24T11:41:24;35.80;99.90
2030;DHT22;1020;48.854;8.830;2023-08-24T11:44:00;35.60;99.90
2030;DHT22;1020;48.854;8.830;2023-08-24T11:46:28;36.10;99.90
2030;DHT22;1020;48.854;8.830;2023-08-24T11:48:56;37.10;99.90
2030;DHT22;1020;48.854;8.830;2023-08-24T11:51:24;38.10;99.90
2030;DHT22;1020;48.854;8.830;2023-08-24T11:53:51;38.80;99.90
2030;DHT22;1020;48.854;8.830;2023-08-24T11:56:18;38.40;99.90
2030;DHT22;1020;48.854;8.830;2023-08-24T11:58:48;39.20;99.90
2030;DHT22;1020;48.854;8.830;2023-08-24T12:01:17;39.80;99.90
2030;DHT22;1020;48.854;8.830;2023-08-24T12:03:44;38.60;99.90
2030;DHT22;1020;48.854;8.830;2023-08-24T12:06:12;38.70;99.90
2030;DHT22;1020;48.854;8.830;2023-08-24T12:08:40;39.40;99.90
2030;DHT22;1020;48.854;8.830;2023-08-24T12:11:12;39.20;99.90
2030;DHT22;1020;48.854;8.830;2023-08-24T12:13:43;39.30;99.90
2030;DHT22;1020;48.854;8.830;2023-08-24T12:16:10;38.30;99.90
2030;DHT22;1020;48.854;8.830;2023-08-24T12:18:49;37.30;99.90
2030;DHT22;1020;48.854;8.830;2023-08-24T12:21:16;36.90;99.90
2030;DHT22;1020;48.854;8.830;2023-08-24T12:23:42;36.30;99.90
2030;DHT22;1020;48.854;8.830;2023-08-24T12:26:17;37.10;99.90
2030;DHT22;1020;48.854;8.830;2023-08-24T12:28:48;37.00;99.90
2030;DHT22;1020;48.854;8.830;2023-08-24T12:31:16;36.30;99.90
2030;DHT22;1020;48.854;8.830;2023-08-24T12:33:43;35.70;99.90
2030;DHT22;1020;48.854;8.830;2023-08-24T12:36:12;36.10;99.90
2030;DHT22;1020;48.854;8.830;2023-08-24T12:38:39;35.70;99.90
2030;DHT22;1020;48.854;8.830;2023-08-24T12:41:08;35.90;99.90
2030;DHT22;1020;48.854;8.830;2023-08-24T12:43:34;36.20;99.90
2030;DHT22;1020;48.854;8.830;2023-08-24T12:46:01;36.40;99.90
2030;DHT22;1020;48.854;8.830;2023-08-24T12:48:28;36.60;99.90
2030;DHT22;1020;48.854;8.830;2023-08-24T12:50:55;36.40;99.90
2030;DHT22;1020;48.854;8.830;2023-08-24T12:53:23;37.20;99.90
2030;DHT22;1020;48.854;8.830;2023-08-24T12:55:49;36.90;99.90
2030;DHT22;1020;48.854;8.830;2023-08-24T12:58:16;36.90;99.90
2030;DHT22;1020;48.854;8.830;2023-08-24T13:00:43;36.50;99.90
2030;DHT22;1020;48.854;8.830;2023-08-24T13:03:10;35.90;99.90
2030;DHT22;1020;48.854;8.830;2023-08-24T13:05:37;35.60;99.90
2030;DHT22;1020;48.854;8.830;2023-08-24T13:08:04;35.60;99.90
2030;DHT22;1020;48.854;8.830;2023-08-24T13:10:33;35.70;99.90
2030;DHT22;1020;48.854;8.830;2023-08-24T13:13:01;35.70;99.90
2030;DHT22;1020;48.854;8.830;2023-08-24T13:15:28;35.80;99.90
2030;DHT22;1020;48.854;8.830;2023-08-24T13:17:55;36.10;99.90
2030;DHT22;1020;48.854;8.830;2023-08-24T13:20:21;35.40;99.90
2030;DHT22;1020;48.854;8.830;2023-08-24T13:22:48;35.70;99.90
2030;DHT22;1020;48.854;8.830;2023-08-24T13:25:15;35.80;99.90
2030;DHT22;1020;48.854;8.830;2023-08-24T13:27:43;36.00;99.90
2030;DHT22;1020;48.854;8.830;2023-08-24T13:30:10;36.40;99.90
2030;DHT22;1020;48.854;8.830;2023-08-24T13:32:37;36.70;99.90
2030;DHT22;1020;48.854;8.830;2023-08-24T13:35:05;36.40;99.90
2030;DHT22;1020;48.854;8.830;2023-08-24T13:37:32;36.60;99.90
2030;DHT22;1020;48.854;8.830;2023-08-24T13:39:59;37.00;99.90
2030;DHT22;1020;48.854;8.830;2023-08-24T13:42:26;36.90;99.90
2030;DHT22;1020;48.854;8.830;2023-08-24T13:44:54;37.20;99.90
2030;DHT22;1020;48.854;8.830;2023-08-24T13:47:20;37.20;99.90
2030;DHT22;1020;48.854;8.830;2023-08-24T13:49:48;37.60;99.90
2030;DHT22;1020;48.854;8.830;2023-08-24T13:52:15;36.50;99.90
2030;DHT22;1020;48.854;8.830;2023-08-24T13:54:44;35.70;99.90
2030;DHT22;1020;48.854;8.830;2023-08-24T13:57:11;35.60;99.90
2030;DHT22;1020;48.854;8.830;2023-08-24T13:59:38;35.00;99.90
2030;DHT22;1020;48.854;8.830;2023-08-24T14:02:06;35.00;99.90
2030;DHT22;1020;48.854;8.830;2023-08-24T14:04:33;34.80;99.90
2030;DHT22;1020;48.854;8.830;2023-08-24T14:07:00;34.50;99.90
2030;DHT22;1020;48.854;8.830;2023-08-24T14:09:27;33.90;99.90
2030;DHT22;1020;48.854;8.830;2023-08-24T14:11:53;33.90;99.90
2030;DHT22;1020;48.854;8.830;2023-08-24T14:14:20;33.70;99.90
2030;DHT22;1020;48.854;8.830;2023-08-24T14:16:53;33.70;99.90
2030;DHT22;1020;48.854;8.830;2023-08-24T14:19:21;33.80;99.90
2030;DHT22;1020;48.854;8.830;2023-08-24T14:21:48;33.80;99.90
2030;DHT22;1020;48.854;8.830;2023-08-24T14:24:15;33.90;99.90
2030;DHT22;1020;48.854;8.830;2023-08-24T14:26:42;34.00;99.90
2030;DHT22;1020;48.854;8.830;2023-08-24T14:29:11;34.30;99.90
2030;DHT22;1020;48.854;8.830;2023-08-24T14:31:38;33.80;99.90
2030;DHT22;1020;48.854;8.830;2023-08-24T14:34:05;31.60;99.90
2030;DHT22;1020;48.854;8.830;2023-08-24T14:36:33;29.70;99.90
2030;DHT22;1020;48.854;8.830;2023-08-24T14:39:00;28.00;1.00
2030;DHT22;1020;48.854;8.830;2023-08-24T14:41:27;27.00;99.90
2030;DHT22;1020;48.854;8.830;2023-08-24T14:51:11;23.40;99.90
2030;DHT22;1020;48.854;8.830;2023-08-24T14:53:39;23.10;99.90
2030;DHT22;1020;48.854;8.830;2023-08-24T14:56:06;23.10;99.90
2030;DHT22;1020;48.854;8.830;2023-08-24T14:58:33;22.80;99.90
2030;DHT22;1020;48.854;8.830;2023-08-24T15:01:00;22.50;99.90
2030;DHT22;1020;48.854;8.830;2023-08-24T15:03:26;22.50;99.90
2030;DHT22;1020;48.854;8.830;2023-08-24T15:05:57;22.40;99.90
2030;DHT22;1020;48.854;8.830;2023-08-24T15:08:24;22.40;99.90
2030;DHT22;1020;48.854;8.830;2023-08-24T15:10:54;22.30;99.90
2030;DHT22;1020;48.854;8.830;2023-08-24T15:13:21;22.30;99.90
2030;DHT22;1020;48.854;8.830;2023-08-24T15:15:48;22.40;99.90
2030;DHT22;1020;48.854;8.830;2023-08-24T15:18:14;22.60;99.90
2030;DHT22;1020;48.854;8.830;2023-08-24T15:20:41;22.80;99.90
2030;DHT22;1020;48.854;8.830;2023-08-24T15:23:08;23.10;99.90
2030;DHT22;1020;48.854;8.830;2023-08-24T15:25:36;23.20;99.90
2030;DHT22;1020;48.854;8.830;2023-08-24T15:28:04;23.20;99.90
2030;DHT22;1020;48.854;8.830;2023-08-24T15:30:31;23.30;99.90
2030;DHT22;1020;48.854;8.830;2023-08-24T15:32:58;23.30;99.90
2030;DHT22;1020;48.854;8.830;2023-08-24T15:35:25;23.40;99.90
2030;DHT22;1020;48.854;8.830;2023-08-24T15:37:52;23.30;99.90
2030;DHT22;1020;48.854;8.830;2023-08-24T15:40:18;23.20;99.90
2030;DHT22;1020;48.854;8.830;2023-08-24T15:42:45;23.10;99.90
2030;DHT22;1020;48.854;8.830;2023-08-24T15:45:14;23.30;99.90
2030;DHT22;1020;48.854;8.830;2023-08-24T15:47:40;23.50;99.90
2030;DHT22;1020;48.854;8.830;2023-08-24T15:50:07;23.40;99.90
2030;DHT22;1020;48.854;8.830;2023-08-24T15:52:34;23.20;99.90
2030;DHT22;1020;48.854;8.830;2023-08-24T15:55:02;22.90;99.90
2030;DHT22;1020;48.854;8.830;2023-08-24T15:57:28;22.80;99.90
2030;DHT22;1020;48.854;8.830;2023-08-24T15:59:55;22.70;99.90
2030;DHT22;1020;48.854;8.830;2023-08-24T16:02:23;22.50;99.90
2030;DHT22;1020;48.854;8.830;2023-08-24T16:04:50;22.30;99.90
2030;DHT22;1020;48.854;8.830;2023-08-24T16:07:18;22.30;99.90
2030;DHT22;1020;48.854;8.830;2023-08-24T16:09:45;22.30;99.90
2030;DHT22;1020;48.854;8.830;2023-08-24T16:12:12;22.40;99.90
2030;DHT22;1020;48.854;8.830;2023-08-24T16:14:38;22.50;99.90
2030;DHT22;1020;48.854;8.830;2023-08-24T16:17:05;22.70;99.90